Grover, South Carolina
Current Conditions -  °F | °C
As of 11:35 AM on Friday 21 Nov 2014 (Local Time) from KRBW Reporting Station
Clear Clear  
Wind Chill: 64°   Ceiling: Unl
Heat Index: 64°   Visibility: 10mi
Dew Point: 25°   Wind: 5mph
Humidity: 22%   Direction: 10°N
Pressure: 30.39"   Gusts: NA
Location:  33.11°N, 80.59°W
Report Text: KRBW 211635Z AUTO 01004KT 10SM CLR 18/M04 A3039 RMK AO2
Loading
Personal Weather Stations






























Interactive Weather Map New forecast layout! Learn more

10-Day Weather Forecast

Advertisements
Track Severe Weather on mobile